KASD

Details ICAO KASD
Name Slidell
Region United States
Timezone America/Chicago (UTC-6.0)
Plans Departing 13
Arriving 6
Stats Elevation 27 ft / 8 m (AMSL)
Location 30.345019° -89.820785°
Runways 1
Magnetic Variation 1.048° W
Sunrise 2017-12-11 12:47:26 UTC / 2017-12-11 06:47:26 Local
Sunset 2017-12-11 23:00:47 UTC / 2017-12-11 17:00:47 Local
Advertisement - Login to hide

Runways

ID Width Length Bearing (true) Bearing (mag) Surface Threshold Offset Overrun Length
18 100 ft / 30 m 5,005 ft / 1,525 m 179.49° 180.54° Asphalt 945 ft / 288 m 0 ft / 0 m
36 100 ft / 30 m 5,005 ft / 1,525 m 359.49° 0.54° Asphalt 0 ft / 0 m 0 ft / 0 m

Map

Weather


0- 5 10 15 20 25 30 35+ Temperature / ° C

Clouds and Precipitation
Forecast for 2017-12-11 12:00 UTC. Updated 10 minutes ago

Ground ~20,000 ft ~40,000 ft Winds

METAR

KASD 110731Z AUTO 00000KT 10SM BKN002 01/M01 A3032 RMK AO2 T00061006

TAF

KASD 110522Z 1106/1206 00000KT P6SM FEW250 FM111800 25006KT P6SM SKC

Frequencies

Recorded 132.47 MHz ASOS
Approach 133.15 MHz NEW ORLEANS APP/DEP
Unicom 122.80 MHz CTAF/UNICOM
Warning: Do not use this data for real-world aviation or navigation. No guarantee of current accuracy is given.